createdAt,value
2018-12-23T00:01:15.628Z,95.92
2018-12-23T00:03:43.792Z,95.56
2018-12-23T00:06:12.012Z,95.66
2018-12-23T00:08:40.222Z,95.53
2018-12-23T00:11:08.437Z,95.64
2018-12-23T00:13:36.602Z,95.71
2018-12-23T00:16:04.842Z,95.74
2018-12-23T00:18:33.104Z,95.82
2018-12-23T00:21:01.339Z,95.80
2018-12-23T00:23:29.497Z,95.48
2018-12-23T00:25:57.648Z,96.00
2018-12-23T00:28:25.928Z,96.14
2018-12-23T00:30:54.164Z,96.34
2018-12-23T00:33:22.304Z,95.96
2018-12-23T00:35:50.440Z,95.89
2018-12-23T00:38:18.576Z,96.24
2018-12-23T00:40:46.744Z,96.32
2018-12-23T00:43:14.900Z,95.89
2018-12-23T00:45:43.112Z,96.04
2018-12-23T00:48:11.345Z,96.34
2018-12-23T00:50:39.568Z,95.86
2018-12-23T00:53:07.715Z,95.93
2018-12-23T00:55:35.867Z,96.32
2018-12-23T00:58:04.073Z,96.13
2018-12-23T01:00:32.353Z,96.58
2018-12-23T01:03:00.596Z,96.45
2018-12-23T01:05:29.119Z,96.06
2018-12-23T01:07:57.475Z,96.09
2018-12-23T01:10:25.644Z,96.57
2018-12-23T01:12:53.858Z,96.21
2018-12-23T01:15:22.027Z,96.50
2018-12-23T01:17:50.193Z,96.18
2018-12-23T01:20:18.417Z,96.09
2018-12-23T01:22:46.719Z,96.64
2018-12-23T01:25:14.947Z,96.24
2018-12-23T01:27:43.104Z,96.10
2018-12-23T01:30:11.249Z,96.31
2018-12-23T01:32:39.412Z,96.27
2018-12-23T01:35:07.809Z,96.37
2018-12-23T01:37:36.038Z,96.09
2018-12-23T01:40:04.365Z,95.99
2018-12-23T01:42:32.607Z,96.59
2018-12-23T01:45:00.849Z,96.09
2018-12-23T01:47:29.180Z,96.00
2018-12-23T01:49:57.349Z,96.34
2018-12-23T01:52:25.580Z,96.52
2018-12-23T01:54:53.869Z,96.13
2018-12-23T01:57:22.086Z,96.42
2018-12-23T01:59:50.259Z,95.86
2018-12-23T02:02:18.433Z,96.29
2018-12-23T02:04:46.590Z,96.06
2018-12-23T02:07:14.831Z,96.07
2018-12-23T02:09:43.087Z,95.93
2018-12-23T02:12:11.406Z,96.34
2018-12-23T02:14:39.673Z,96.30
2018-12-23T02:17:07.859Z,96.10
2018-12-23T02:19:36.153Z,96.20
2018-12-23T02:22:04.393Z,95.87
2018-12-23T02:24:32.780Z,96.20
2018-12-23T02:27:00.977Z,96.00
2018-12-23T02:29:29.195Z,95.96
2018-12-23T02:31:57.418Z,96.04
2018-12-23T02:34:25.652Z,96.36
2018-12-23T02:36:54.591Z,95.88
2018-12-23T02:39:22.807Z,96.31
2018-12-23T02:41:50.970Z,95.82
2018-12-23T02:44:19.260Z,95.87
2018-12-23T02:46:47.472Z,96.20
2018-12-23T02:49:15.642Z,96.09
2018-12-23T02:51:43.863Z,96.13
2018-12-23T02:54:12.105Z,96.29
2018-12-23T02:56:40.286Z,96.67
2018-12-23T02:59:08.435Z,96.35
2018-12-23T03:01:36.720Z,96.21
2018-12-23T03:04:04.956Z,96.34
2018-12-23T03:06:33.149Z,96.43
2018-12-23T03:09:01.419Z,96.37
2018-12-23T03:11:29.729Z,96.38
2018-12-23T03:13:58.037Z,96.41
2018-12-23T03:16:26.201Z,96.30
2018-12-23T03:18:54.428Z,96.83
2018-12-23T03:21:22.608Z,96.22
2018-12-23T03:23:50.902Z,96.29
2018-12-23T03:26:19.083Z,96.38
2018-12-23T03:28:47.360Z,96.38
2018-12-23T03:31:15.592Z,96.85
2018-12-23T03:33:43.739Z,96.17
2018-12-23T03:36:15.205Z,96.38
2018-12-23T03:38:42.048Z,96.35
2018-12-23T03:41:10.364Z,96.05
2018-12-23T03:43:38.517Z,96.33
2018-12-23T03:46:06.819Z,96.25
2018-12-23T03:48:35.684Z,96.59
2018-12-23T03:51:03.906Z,96.41
2018-12-23T03:53:32.093Z,96.72
2018-12-23T03:56:00.359Z,96.72
2018-12-23T03:58:28.543Z,96.59
2018-12-23T04:00:56.697Z,96.84
2018-12-23T04:03:24.878Z,96.44
2018-12-23T04:05:53.190Z,96.70
2018-12-23T04:08:21.413Z,96.65
2018-12-23T04:10:49.661Z,96.77
2018-12-23T04:13:17.830Z,96.63
2018-12-23T04:15:45.999Z,96.64
2018-12-23T04:18:14.381Z,96.73
2018-12-23T04:20:42.553Z,96.54
2018-12-23T04:23:10.819Z,96.37
2018-12-23T04:25:39.063Z,96.17
2018-12-23T04:28:07.245Z,96.17
2018-12-23T04:30:35.422Z,96.46
2018-12-23T04:33:03.569Z,96.19
2018-12-23T04:35:31.781Z,96.41
2018-12-23T04:37:59.920Z,96.60
2018-12-23T04:40:28.073Z,96.31
2018-12-23T04:42:56.296Z,96.37
2018-12-23T04:45:24.474Z,96.27
2018-12-23T04:47:52.650Z,96.05
2018-12-23T04:50:20.824Z,96.19
2018-12-23T04:52:48.974Z,96.01
2018-12-23T04:55:17.109Z,96.02
2018-12-23T04:57:45.333Z,96.37
2018-12-23T05:00:20.065Z,96.55
2018-12-23T05:02:48.305Z,95.97
2018-12-23T05:05:16.480Z,96.31
2018-12-23T05:07:44.650Z,95.82
2018-12-23T05:10:12.889Z,95.92
2018-12-23T05:12:41.113Z,96.21
2018-12-23T05:15:09.336Z,96.16
2018-12-23T05:17:37.484Z,96.01
2018-12-23T05:20:05.778Z,96.29
2018-12-23T05:22:34.039Z,95.87
2018-12-23T05:25:02.196Z,96.07
2018-12-23T05:27:30.455Z,95.81
2018-12-23T05:29:58.596Z,95.91
2018-12-23T05:32:26.743Z,96.23
2018-12-23T05:34:55.045Z,95.81
2018-12-23T05:37:23.284Z,95.88
2018-12-23T05:39:51.426Z,96.16
2018-12-23T05:42:19.569Z,96.07
2018-12-23T05:44:47.830Z,95.46
2018-12-23T05:47:16.072Z,95.73
2018-12-23T05:49:44.286Z,94.63
2018-12-23T05:52:19.127Z,94.62
2018-12-23T05:54:48.470Z,94.77
2018-12-23T05:57:16.673Z,94.82
2018-12-23T05:59:44.878Z,94.85
2018-12-23T06:02:13.069Z,95.29
2018-12-23T06:04:41.368Z,94.78
2018-12-23T06:07:09.918Z,94.93
2018-12-23T06:09:38.834Z,95.72
2018-12-23T06:12:06.988Z,95.44
2018-12-23T06:14:35.252Z,95.28
2018-12-23T06:17:03.525Z,94.90
2018-12-23T06:19:31.682Z,94.95
2018-12-23T06:21:59.899Z,94.60
2018-12-23T06:24:28.278Z,94.52
2018-12-23T06:26:56.474Z,94.46
2018-12-23T06:29:24.840Z,94.60
2018-12-23T06:31:53.057Z,94.36
2018-12-23T06:34:21.282Z,95.11
2018-12-23T06:36:49.547Z,95.08
2018-12-23T06:39:18.096Z,95.38
2018-12-23T06:41:46.263Z,95.94
2018-12-23T06:44:14.482Z,95.72
2018-12-23T06:46:42.678Z,96.06
2018-12-23T06:49:10.836Z,96.11
2018-12-23T06:51:39.036Z,96.02
2018-12-23T06:54:07.198Z,95.52
2018-12-23T06:56:35.464Z,95.77
2018-12-23T06:59:03.697Z,95.02
2018-12-23T07:01:32.008Z,95.22
2018-12-23T07:04:00.184Z,95.29
2018-12-23T07:06:28.392Z,94.82
2018-12-23T07:08:56.548Z,94.86
2018-12-23T07:11:24.702Z,95.24
2018-12-23T07:13:52.944Z,95.31
2018-12-23T07:16:21.211Z,95.02
2018-12-23T07:18:49.416Z,94.67
2018-12-23T07:21:17.625Z,94.93
2018-12-23T07:23:45.886Z,95.12
2018-12-23T07:26:14.035Z,94.72
2018-12-23T07:28:42.165Z,94.80
2018-12-23T07:31:10.333Z,94.87
2018-12-23T07:33:38.526Z,94.61
2018-12-23T07:36:06.881Z,94.91
2018-12-23T07:38:35.040Z,94.85
2018-12-23T07:41:03.350Z,95.09
2018-12-23T07:43:31.538Z,94.83
2018-12-23T07:45:59.690Z,95.04
2018-12-23T07:48:27.927Z,95.10
2018-12-23T07:50:56.147Z,94.72
2018-12-23T07:53:24.315Z,94.53
2018-12-23T07:55:52.490Z,94.31
2018-12-23T07:58:20.749Z,94.45
2018-12-23T08:00:48.909Z,94.63
2018-12-23T08:03:17.068Z,94.65
2018-12-23T08:05:45.257Z,94.95
2018-12-23T08:08:13.539Z,94.73
2018-12-23T08:10:41.780Z,94.25
2018-12-23T08:13:09.993Z,94.49
2018-12-23T08:15:38.153Z,94.58
2018-12-23T08:18:06.486Z,94.82
2018-12-23T08:20:34.699Z,94.62
2018-12-23T08:23:09.466Z,94.44
2018-12-23T08:25:37.714Z,94.48
2018-12-23T08:28:05.890Z,94.51
2018-12-23T08:30:34.110Z,94.33
2018-12-23T08:33:02.262Z,94.78
2018-12-23T08:35:30.439Z,94.70
2018-12-23T08:37:58.865Z,94.59
2018-12-23T08:40:27.106Z,94.52
2018-12-23T08:42:55.381Z,94.52
2018-12-23T08:45:23.609Z,94.63
2018-12-23T08:47:51.877Z,94.53
2018-12-23T08:50:20.101Z,94.24
2018-12-23T08:52:48.362Z,94.73
2018-12-23T08:55:16.508Z,94.56
2018-12-23T08:57:44.892Z,94.28
2018-12-23T09:00:13.054Z,94.29
2018-12-23T09:02:41.277Z,93.61
2018-12-23T09:05:11.045Z,93.75
2018-12-23T09:07:39.285Z,94.11
2018-12-23T09:10:09.845Z,94.42
2018-12-23T09:12:39.566Z,94.61
2018-12-23T09:15:10.096Z,94.10
2018-12-23T09:17:40.314Z,93.88
2018-12-23T09:20:10.068Z,93.86
2018-12-23T09:22:38.382Z,94.22
2018-12-23T09:25:10.218Z,93.93
2018-12-23T09:27:38.454Z,93.76
2018-12-23T09:30:06.902Z,93.88
2018-12-23T09:32:35.086Z,93.91
2018-12-23T09:35:03.382Z,94.24
2018-12-23T09:37:31.538Z,94.10
2018-12-23T09:39:59.719Z,93.97
2018-12-23T09:42:27.891Z,93.91
2018-12-23T09:44:56.136Z,93.49
2018-12-23T09:47:24.305Z,93.43
2018-12-23T09:49:52.607Z,94.00
2018-12-23T09:52:20.799Z,93.73
2018-12-23T09:54:48.933Z,93.00
2018-12-23T09:57:17.198Z,93.91
2018-12-23T09:59:45.382Z,94.23
2018-12-23T10:02:13.672Z,93.80
2018-12-23T10:04:41.958Z,94.00
2018-12-23T10:07:10.184Z,93.99
2018-12-23T10:09:38.401Z,94.27
2018-12-23T10:12:06.659Z,94.22
2018-12-23T10:14:34.873Z,94.22
2018-12-23T10:17:03.208Z,93.91
2018-12-23T10:19:31.344Z,93.70
2018-12-23T10:21:59.629Z,93.86
2018-12-23T10:24:27.860Z,93.94
2018-12-23T10:26:56.941Z,93.69
2018-12-23T10:29:25.099Z,93.75
2018-12-23T10:32:02.778Z,94.00
2018-12-23T10:34:33.058Z,94.18
2018-12-23T10:37:01.143Z,94.02
2018-12-23T10:39:29.440Z,94.01
2018-12-23T10:41:57.587Z,94.72
2018-12-23T10:44:25.816Z,94.19
2018-12-23T10:46:54.046Z,94.52
2018-12-23T10:49:22.357Z,93.86
2018-12-23T10:51:50.617Z,93.77
2018-12-23T10:54:18.767Z,93.91
2018-12-23T10:56:46.928Z,93.83
2018-12-23T10:59:15.112Z,93.59
2018-12-23T11:01:43.540Z,93.48
2018-12-23T11:04:11.929Z,93.75
2018-12-23T11:06:40.895Z,93.68
2018-12-23T11:09:09.358Z,93.64
2018-12-23T11:11:38.575Z,93.25
2018-12-23T11:14:06.885Z,93.10
2018-12-23T11:16:35.896Z,93.22
2018-12-23T11:19:04.157Z,92.88
2018-12-23T11:21:33.286Z,92.73
2018-12-23T11:24:01.515Z,92.90
2018-12-23T11:26:29.699Z,93.20
2018-12-23T11:28:58.024Z,93.65
2018-12-23T11:31:26.967Z,93.27
2018-12-23T11:33:55.299Z,92.98
2018-12-23T11:36:24.481Z,92.66
2018-12-23T11:38:52.781Z,93.08
2018-12-23T11:41:21.150Z,93.07
2018-12-23T11:43:49.399Z,92.15
2018-12-23T11:46:17.711Z,93.11
2018-12-23T11:48:45.989Z,92.86
2018-12-23T11:51:15.067Z,92.76
2018-12-23T11:53:43.358Z,92.79
2018-12-23T11:56:11.721Z,92.15
2018-12-23T11:58:39.886Z,92.04
2018-12-23T12:01:08.210Z,91.86
2018-12-23T12:03:36.538Z,92.66
2018-12-23T12:06:04.852Z,92.81
2018-12-23T12:08:33.049Z,92.24
2018-12-23T12:11:01.318Z,91.96
2018-12-23T12:13:29.569Z,92.45
2018-12-23T12:15:57.816Z,92.08
2018-12-23T12:18:25.968Z,91.92
2018-12-23T12:20:54.185Z,91.31
2018-12-23T12:23:23.554Z,91.28
2018-12-23T12:25:51.861Z,91.70
2018-12-23T12:28:20.198Z,91.92
2018-12-23T12:30:48.367Z,91.51
2018-12-23T12:33:16.616Z,91.81
2018-12-23T12:35:44.903Z,91.24
2018-12-23T12:38:13.168Z,91.24
2018-12-23T12:40:41.462Z,91.67
2018-12-23T12:43:09.755Z,91.33
2018-12-23T12:45:38.080Z,91.28
2018-12-23T12:48:06.341Z,90.90
2018-12-23T12:50:34.556Z,91.03
2018-12-23T12:53:22.832Z,91.30
2018-12-23T12:55:51.071Z,91.53
2018-12-23T12:58:21.490Z,91.73
2018-12-23T13:00:49.698Z,91.41
2018-12-23T13:03:17.898Z,91.61
2018-12-23T13:05:46.244Z,91.19
2018-12-23T13:08:14.472Z,91.41
2018-12-23T13:10:42.764Z,91.62
2018-12-23T13:13:10.955Z,91.12
2018-12-23T13:15:39.223Z,91.04
2018-12-23T13:18:07.475Z,91.28
2018-12-23T13:20:35.651Z,91.16
2018-12-23T13:23:04.018Z,91.45
2018-12-23T13:25:32.322Z,91.40
2018-12-23T13:30:53.298Z,91.87
2018-12-23T13:33:21.577Z,91.41
2018-12-23T13:35:49.741Z,91.02
2018-12-23T13:38:17.977Z,90.80
2018-12-23T13:43:03.078Z,90.59
2018-12-23T13:47:48.107Z,90.47
2018-12-23T13:50:52.244Z,90.15
2018-12-23T13:53:31.681Z,90.46
2018-12-23T13:58:15.007Z,90.61
2018-12-23T14:00:51.826Z,89.97
2018-12-23T14:03:31.086Z,90.03
2018-12-23T14:06:13.215Z,90.67
2018-12-23T14:08:50.304Z,90.35
2018-12-23T14:11:28.513Z,90.98
2018-12-23T14:13:56.801Z,90.88
2018-12-23T14:16:24.952Z,90.87
2018-12-23T14:18:53.120Z,90.70
2018-12-23T14:21:21.280Z,90.40
2018-12-23T14:23:49.531Z,90.34
2018-12-23T14:26:17.737Z,90.56
2018-12-23T14:28:45.912Z,90.52
2018-12-23T14:31:14.364Z,90.36
2018-12-23T14:33:42.570Z,91.27
2018-12-23T14:36:10.892Z,90.68
2018-12-23T14:38:39.085Z,89.89
2018-12-23T14:41:07.247Z,89.82
2018-12-23T14:43:35.496Z,89.92
2018-12-23T14:46:03.865Z,90.27
2018-12-23T14:48:32.739Z,89.70
2018-12-23T14:51:00.914Z,89.98
2018-12-23T14:53:29.601Z,90.05
2018-12-23T14:55:57.856Z,90.01
2018-12-23T14:58:26.021Z,89.92
2018-12-23T15:00:54.307Z,90.35
2018-12-23T15:03:22.688Z,90.05
2018-12-23T15:05:50.960Z,90.13
2018-12-23T15:08:20.230Z,90.54
2018-12-23T15:10:48.388Z,90.39
2018-12-23T15:13:17.988Z,90.72
2018-12-23T15:15:46.425Z,91.05
2018-12-23T15:18:14.619Z,90.88
2018-12-23T15:20:42.890Z,90.74
2018-12-23T15:23:11.183Z,90.72
2018-12-23T15:25:39.420Z,91.01
2018-12-23T15:28:07.653Z,91.45
2018-12-23T15:30:35.814Z,91.58
2018-12-23T15:33:04.033Z,90.97
2018-12-23T15:35:32.393Z,91.12
2018-12-23T15:38:00.864Z,91.03
2018-12-23T15:40:29.011Z,91.48
2018-12-23T15:42:57.174Z,91.58
2018-12-23T15:45:25.322Z,91.57
2018-12-23T15:47:53.655Z,91.73
2018-12-23T15:56:14.289Z,91.67
2018-12-23T15:58:46.992Z,92.52
2018-12-23T16:01:17.992Z,92.31
2018-12-23T16:03:48.908Z,91.96
2018-12-23T16:06:19.452Z,91.98
2018-12-23T16:08:53.423Z,91.96
2018-12-23T16:11:27.093Z,92.61
2018-12-23T16:13:55.948Z,92.14
2018-12-23T16:16:26.734Z,91.94
2018-12-23T16:18:57.357Z,92.12
2018-12-23T16:21:27.268Z,91.87
2018-12-23T16:23:56.207Z,92.14
2018-12-23T16:26:27.864Z,91.81
2018-12-23T16:28:58.051Z,91.87
2018-12-23T16:31:28.397Z,92.77
2018-12-23T16:34:01.701Z,92.88
2018-12-23T16:36:33.823Z,92.50
2018-12-23T16:39:02.563Z,92.78
2018-12-23T16:41:32.743Z,92.71
2018-12-23T17:01:20.091Z,92.99
2018-12-23T17:03:49.245Z,93.09
2018-12-23T17:06:23.491Z,92.75
2018-12-23T17:08:52.809Z,92.67
2018-12-23T17:11:21.178Z,92.50
2018-12-23T17:13:49.385Z,92.82
2018-12-23T17:16:18.791Z,92.59
2018-12-23T17:18:47.107Z,92.48
2018-12-23T17:21:15.361Z,92.26
2018-12-23T17:23:43.611Z,92.62
2018-12-23T17:26:11.887Z,91.99
2018-12-23T17:28:40.140Z,92.34
2018-12-23T17:31:08.487Z,92.48
2018-12-23T17:33:36.781Z,92.35
2018-12-23T17:36:05.444Z,92.45
2018-12-23T17:38:33.754Z,92.57
2018-12-23T17:41:02.163Z,92.69
2018-12-23T17:43:30.413Z,92.81
2018-12-23T17:45:58.729Z,92.14
2018-12-23T17:48:27.008Z,91.96
2018-12-23T17:50:55.692Z,91.91
2018-12-23T17:53:23.896Z,91.90
2018-12-23T17:55:52.236Z,91.79
2018-12-23T17:58:20.608Z,91.40
2018-12-23T18:00:48.776Z,91.32
2018-12-23T18:03:17.056Z,91.11
2018-12-23T18:05:45.398Z,91.24
2018-12-23T18:08:51.602Z,91.30
2018-12-23T18:11:20.143Z,91.14
2018-12-23T18:13:49.631Z,90.94
2018-12-23T18:16:18.023Z,91.22
2018-12-23T18:18:46.272Z,90.59
2018-12-23T18:21:14.529Z,91.03
2018-12-23T18:23:42.782Z,90.98
2018-12-23T18:26:12.120Z,90.91
2018-12-23T18:28:40.359Z,90.72
2018-12-23T18:31:08.684Z,90.95
2018-12-23T18:33:37.295Z,91.32
2018-12-23T18:36:05.567Z,91.13
2018-12-23T18:38:33.778Z,90.98
2018-12-23T18:41:01.973Z,91.37
2018-12-23T18:43:30.132Z,91.90
2018-12-23T18:45:58.334Z,91.81
2018-12-23T18:48:26.553Z,91.65
2018-12-23T18:50:54.768Z,91.42
2018-12-23T18:53:23.017Z,91.66
2018-12-23T18:55:51.214Z,91.61
2018-12-23T18:58:19.597Z,91.75
2018-12-23T19:00:51.246Z,91.12
2018-12-23T19:03:19.497Z,91.32
2018-12-23T19:05:47.640Z,91.58
2018-12-23T19:08:20.324Z,91.38
2018-12-23T19:11:58.238Z,91.13
2018-12-23T19:15:12.911Z,91.84
2018-12-23T19:17:54.287Z,92.50
2018-12-23T19:21:14.930Z,92.03
2018-12-23T19:23:58.392Z,91.93
2018-12-23T19:26:56.624Z,91.86
2018-12-23T19:29:42.786Z,91.18
2018-12-23T19:32:24.013Z,91.67
2018-12-23T19:35:03.064Z,91.75
2018-12-23T19:37:42.804Z,91.32
2018-12-23T19:42:40.581Z,90.97
2018-12-23T19:45:50.889Z,91.51
2018-12-23T19:49:30.871Z,91.46
2018-12-23T19:52:10.356Z,91.33
2018-12-23T19:56:10.738Z,91.43
2018-12-23T19:59:00.144Z,91.62
2018-12-23T20:03:43.778Z,92.11
2018-12-23T20:06:39.996Z,91.55
2018-12-23T20:09:21.564Z,91.50
2018-12-23T20:12:03.732Z,91.73
2018-12-23T20:14:58.869Z,91.33
2018-12-23T20:17:38.497Z,91.79
2018-12-23T20:20:26.146Z,91.72
2018-12-23T20:23:07.740Z,91.98
2018-12-23T20:26:46.012Z,91.67
2018-12-23T20:31:43.849Z,91.79
2018-12-23T20:34:38.381Z,92.41
2018-12-23T20:37:18.548Z,92.40
2018-12-23T20:40:03.710Z,92.38
2018-12-23T20:42:43.061Z,92.26
2018-12-23T20:45:28.159Z,92.29
2018-12-23T20:49:05.159Z,92.12
2018-12-23T20:51:44.786Z,92.03
2018-12-23T20:54:22.996Z,92.39
2018-12-23T20:57:20.429Z,92.22
2018-12-23T21:00:02.653Z,92.10
2018-12-23T21:02:42.292Z,92.15
2018-12-23T21:06:25.565Z,92.10
2018-12-23T21:09:04.850Z,91.80
2018-12-23T21:11:46.165Z,91.83
2018-12-23T21:14:26.608Z,92.77
2018-12-23T21:17:12.500Z,92.47
2018-12-23T21:19:56.400Z,92.32
2018-12-23T21:25:00.338Z,91.88
2018-12-23T21:28:44.394Z,91.87
2018-12-23T21:31:32.256Z,91.50
2018-12-23T21:36:14.384Z,91.45
2018-12-23T21:39:57.321Z,91.68
2018-12-23T21:43:12.073Z,91.31
2018-12-23T21:45:52.740Z,91.52
2018-12-23T21:48:37.945Z,91.63
2018-12-23T21:51:50.390Z,91.93
2018-12-23T21:54:31.777Z,91.89
2018-12-23T21:57:47.094Z,91.83
2018-12-23T22:00:38.317Z,92.10
2018-12-23T22:04:14.257Z,91.95
2018-12-23T22:09:05.916Z,92.11
2018-12-23T22:11:43.820Z,93.08
2018-12-23T22:14:11.986Z,92.77
2018-12-23T22:16:42.170Z,92.47
2018-12-23T22:19:10.377Z,92.97
2018-12-23T22:21:43.227Z,92.11
2018-12-23T22:24:11.766Z,92.28
2018-12-23T22:26:39.913Z,92.15
2018-12-23T22:29:43.152Z,92.31
2018-12-23T22:32:11.945Z,91.94
2018-12-23T22:34:41.113Z,91.91
2018-12-23T22:37:12.030Z,92.40
2018-12-23T22:39:45.215Z,92.54
2018-12-23T22:42:15.551Z,92.38
2018-12-23T22:44:44.384Z,92.42
2018-12-23T22:47:13.464Z,92.60
2018-12-23T22:49:45.041Z,92.50
2018-12-23T22:52:13.909Z,92.50
2018-12-23T22:54:42.698Z,93.32
2018-12-23T22:57:11.472Z,93.07
2018-12-23T22:59:40.337Z,93.11
2018-12-23T23:02:09.115Z,93.28
2018-12-23T23:04:38.067Z,93.16
2018-12-23T23:07:06.842Z,93.57
2018-12-23T23:09:35.986Z,93.34
2018-12-23T23:12:04.764Z,93.60
2018-12-23T23:14:33.670Z,93.63
2018-12-23T23:17:02.582Z,93.14
2018-12-23T23:19:31.486Z,93.56
2018-12-23T23:22:00.730Z,93.77
2018-12-23T23:24:29.944Z,93.80
2018-12-23T23:26:59.087Z,93.07
2018-12-23T23:29:52.902Z,93.05
2018-12-23T23:32:21.713Z,93.29
2018-12-23T23:34:50.681Z,93.50
2018-12-23T23:37:19.553Z,93.47
2018-12-23T23:39:48.389Z,93.57
2018-12-23T23:42:17.195Z,93.77
2018-12-23T23:45:00.926Z,93.56
2018-12-23T23:50:21.449Z,93.48
2018-12-23T23:52:50.249Z,93.33
2018-12-23T23:55:18.995Z,93.09
2018-12-23T23:57:47.863Z,93.22
